sensor_id;sensor_type;location;lat;lon;timestamp;pressure;altitude;pressure_sealevel;temperature;humidity
39773;BME280;25451;51.960;6.250;2023-09-30T00:00:43;102357.16;;;14.48;71.84
39773;BME280;25451;51.960;6.250;2023-09-30T00:03:08;102354.63;;;14.46;71.81
39773;BME280;25451;51.960;6.250;2023-09-30T00:05:37;102350.38;;;14.44;71.99
39773;BME280;25451;51.960;6.250;2023-09-30T00:08:03;102340.13;;;14.44;71.85
39773;BME280;25451;51.960;6.250;2023-09-30T00:10:28;102332.88;;;14.43;72.15
39773;BME280;25451;51.960;6.250;2023-09-30T00:12:55;102340.38;;;14.43;72.06
39773;BME280;25451;51.960;6.250;2023-09-30T00:15:21;102335.88;;;14.42;71.92
39773;BME280;25451;51.960;6.250;2023-09-30T00:17:46;102358.34;;;14.40;72.21
39773;BME280;25451;51.960;6.250;2023-09-30T00:20:11;102347.84;;;14.42;72.05
39773;BME280;25451;51.960;6.250;2023-09-30T00:22:37;102335.88;;;14.42;72.05
39773;BME280;25451;51.960;6.250;2023-09-30T00:25:03;102323.31;;;14.39;72.09
39773;BME280;25451;51.960;6.250;2023-09-30T00:27:28;102334.44;;;14.39;71.93
39773;BME280;25451;51.960;6.250;2023-09-30T00:29:53;102348.53;;;14.38;72.10
39773;BME280;25451;51.960;6.250;2023-09-30T00:32:19;102353.03;;;14.39;72.41
39773;BME280;25451;51.960;6.250;2023-09-30T00:34:44;102349.16;;;14.40;72.28
39773;BME280;25451;51.960;6.250;2023-09-30T00:37:09;102351.09;;;14.39;72.40
39773;BME280;25451;51.960;6.250;2023-09-30T00:39:35;102361.59;;;14.37;72.32
39773;BME280;25451;51.960;6.250;2023-09-30T00:42:02;102350.25;;;14.39;72.45
39773;BME280;25451;51.960;6.250;2023-09-30T00:44:29;102347.91;;;14.36;72.44
39773;BME280;25451;51.960;6.250;2023-09-30T00:46:55;102364.38;;;14.37;72.41
39773;BME280;25451;51.960;6.250;2023-09-30T00:49:21;102352.16;;;14.38;72.33
39773;BME280;25451;51.960;6.250;2023-09-30T00:51:48;102357.72;;;14.38;72.37
39773;BME280;25451;51.960;6.250;2023-09-30T00:54:15;102349.38;;;14.38;72.43
39773;BME280;25451;51.960;6.250;2023-09-30T00:56:44;102362.22;;;14.39;72.56
39773;BME280;25451;51.960;6.250;2023-09-30T00:59:14;102358.81;;;14.37;72.71
39773;BME280;25451;51.960;6.250;2023-09-30T01:01:41;102367.97;;;14.38;72.68
39773;BME280;25451;51.960;6.250;2023-09-30T01:04:07;102359.03;;;14.36;72.62
39773;BME280;25451;51.960;6.250;2023-09-30T01:06:32;102368.22;;;14.36;72.85
39773;BME280;25451;51.960;6.250;2023-09-30T01:08:57;102370.16;;;14.36;72.69
39773;BME280;25451;51.960;6.250;2023-09-30T01:11:23;102383.22;;;14.35;72.78
39773;BME280;25451;51.960;6.250;2023-09-30T01:13:49;102379.56;;;14.35;72.72
39773;BME280;25451;51.960;6.250;2023-09-30T01:16:14;102385.38;;;14.33;72.81
39773;BME280;25451;51.960;6.250;2023-09-30T01:18:40;102390.31;;;14.31;72.82
39773;BME280;25451;51.960;6.250;2023-09-30T01:21:08;102392.47;;;14.29;72.97
39773;BME280;25451;51.960;6.250;2023-09-30T01:23:35;102390.31;;;14.31;72.93
39773;BME280;25451;51.960;6.250;2023-09-30T01:26:04;102388.59;;;14.30;72.93
39773;BME280;25451;51.960;6.250;2023-09-30T01:28:31;102394.59;;;14.27;72.81
39773;BME280;25451;51.960;6.250;2023-09-30T01:30:57;102392.88;;;14.26;72.82
39773;BME280;25451;51.960;6.250;2023-09-30T01:33:22;102387.81;;;14.23;72.97
39773;BME280;25451;51.960;6.250;2023-09-30T01:35:48;102401.44;;;14.25;72.91
39773;BME280;25451;51.960;6.250;2023-09-30T01:38:13;102386.94;;;14.23;72.84
39773;BME280;25451;51.960;6.250;2023-09-30T01:40:39;102378.84;;;14.21;72.95
39773;BME280;25451;51.960;6.250;2023-09-30T01:43:04;102367.41;;;14.11;73.08
39773;BME280;25451;51.960;6.250;2023-09-30T01:45:29;102388.72;;;14.17;72.92
39773;BME280;25451;51.960;6.250;2023-09-30T01:47:55;102393.44;;;14.17;73.11
39773;BME280;25451;51.960;6.250;2023-09-30T01:50:20;102396.88;;;14.12;73.10
39773;BME280;25451;51.960;6.250;2023-09-30T01:52:45;102397.75;;;14.12;73.22
39773;BME280;25451;51.960;6.250;2023-09-30T01:55:11;102402.88;;;14.09;73.34
39773;BME280;25451;51.960;6.250;2023-09-30T01:57:37;102388.38;;;14.07;73.32
39773;BME280;25451;51.960;6.250;2023-09-30T02:00:02;102392.88;;;14.08;73.24
39773;BME280;25451;51.960;6.250;2023-09-30T02:02:28;102382.69;;;14.02;73.02
39773;BME280;25451;51.960;6.250;2023-09-30T02:04:53;102389.72;;;14.04;73.20
39773;BME280;25451;51.960;6.250;2023-09-30T02:07:18;102391.88;;;14.02;73.20
39773;BME280;25451;51.960;6.250;2023-09-30T02:09:44;102390.41;;;14.00;73.30
39773;BME280;25451;51.960;6.250;2023-09-30T02:12:09;102385.91;;;13.99;73.34
39773;BME280;25451;51.960;6.250;2023-09-30T02:14:35;102381.44;;;13.98;73.56
39773;BME280;25451;51.960;6.250;2023-09-30T02:17:00;102390.00;;;13.96;73.23
39773;BME280;25451;51.960;6.250;2023-09-30T02:19:26;102390.22;;;13.95;73.16
39773;BME280;25451;51.960;6.250;2023-09-30T02:21:52;102374.03;;;13.92;73.47
39773;BME280;25451;51.960;6.250;2023-09-30T02:24:18;102368.72;;;13.90;73.22
39773;BME280;25451;51.960;6.250;2023-09-30T02:26:43;102371.50;;;13.90;73.25
39773;BME280;25451;51.960;6.250;2023-09-30T02:29:09;102371.94;;;13.87;73.37
39773;BME280;25451;51.960;6.250;2023-09-30T02:31:34;102384.53;;;13.90;73.44
39773;BME280;25451;51.960;6.250;2023-09-30T02:33:59;102386.69;;;13.88;73.27
39773;BME280;25451;51.960;6.250;2023-09-30T02:36:25;102389.44;;;13.88;73.50
39773;BME280;25451;51.960;6.250;2023-09-30T02:38:52;102404.41;;;13.87;73.53
39773;BME280;25451;51.960;6.250;2023-09-30T02:41:17;102399.94;;;13.86;73.44
39773;BME280;25451;51.960;6.250;2023-09-30T02:43:43;102389.06;;;13.84;73.56
39773;BME280;25451;51.960;6.250;2023-09-30T02:46:08;102394.63;;;13.84;73.58
39773;BME280;25451;51.960;6.250;2023-09-30T02:48:33;102394.00;;;13.82;73.56
39773;BME280;25451;51.960;6.250;2023-09-30T02:50:59;102378.88;;;13.78;73.52
39773;BME280;25451;51.960;6.250;2023-09-30T02:53:24;102392.53;;;13.80;73.60
39773;BME280;25451;51.960;6.250;2023-09-30T02:55:49;102378.88;;;13.78;73.58
39773;BME280;25451;51.960;6.250;2023-09-30T02:58:21;102365.22;;;13.77;73.65
39773;BME280;25451;51.960;6.250;2023-09-30T03:00:49;102367.38;;;13.75;73.63
39773;BME280;25451;51.960;6.250;2023-09-30T03:03:15;102367.38;;;13.75;73.38
39773;BME280;25451;51.960;6.250;2023-09-30T03:05:41;102366.53;;;13.74;73.75
39773;BME280;25451;51.960;6.250;2023-09-30T03:08:06;102375.94;;;13.73;73.75
39773;BME280;25451;51.960;6.250;2023-09-30T03:10:31;102373.38;;;13.72;73.71
39773;BME280;25451;51.960;6.250;2023-09-30T03:12:57;102378.53;;;13.68;73.62
39773;BME280;25451;51.960;6.250;2023-09-30T03:15:28;102379.38;;;13.69;73.82
39773;BME280;25451;51.960;6.250;2023-09-30T03:17:56;102370.44;;;13.67;73.73
39773;BME280;25451;51.960;6.250;2023-09-30T03:20:21;102376.59;;;13.69;73.79
39773;BME280;25451;51.960;6.250;2023-09-30T03:22:47;102384.06;;;13.68;73.92
39773;BME280;25451;51.960;6.250;2023-09-30T03:25:14;102384.06;;;13.68;73.68
39773;BME280;25451;51.960;6.250;2023-09-30T03:27:42;102381.53;;;13.67;73.67
39773;BME280;25451;51.960;6.250;2023-09-30T03:30:09;102380.66;;;13.66;73.57
39773;BME280;25451;51.960;6.250;2023-09-30T03:32:35;102383.69;;;13.65;73.69
39773;BME280;25451;51.960;6.250;2023-09-30T03:35:07;102388.16;;;13.66;73.68
39773;BME280;25451;51.960;6.250;2023-09-30T03:37:34;102385.41;;;13.66;73.71
39773;BME280;25451;51.960;6.250;2023-09-30T03:40:00;102385.41;;;13.66;73.69
39773;BME280;25451;51.960;6.250;2023-09-30T03:42:26;102374.72;;;13.63;73.92
39773;BME280;25451;51.960;6.250;2023-09-30T03:44:51;102377.06;;;13.66;73.63
39773;BME280;25451;51.960;6.250;2023-09-30T03:47:18;102378.13;;;13.65;73.74
39773;BME280;25451;51.960;6.250;2023-09-30T03:49:43;102378.75;;;13.67;73.66
39773;BME280;25451;51.960;6.250;2023-09-30T03:52:09;102365.97;;;13.66;73.91
39773;BME280;25451;51.960;6.250;2023-09-30T03:54:36;102377.06;;;13.66;73.63
39773;BME280;25451;51.960;6.250;2023-09-30T03:57:02;102369.56;;;13.66;73.50
39773;BME280;25451;51.960;6.250;2023-09-30T03:59:28;102372.16;;;13.68;73.65
39773;BME280;25451;51.960;6.250;2023-09-30T04:01:54;102356.56;;;13.67;73.92
39773;BME280;25451;51.960;6.250;2023-09-30T04:04:20;102370.44;;;13.67;73.56
39773;BME280;25451;51.960;6.250;2023-09-30T04:06:46;102375.97;;;13.67;73.92
39773;BME280;25451;51.960;6.250;2023-09-30T04:09:13;102382.38;;;13.67;73.67
39773;BME280;25451;51.960;6.250;2023-09-30T04:11:38;102380.47;;;13.68;73.69
39773;BME280;25451;51.960;6.250;2023-09-30T04:14:07;102379.38;;;13.69;73.72
39773;BME280;25451;51.960;6.250;2023-09-30T04:16:33;102366.59;;;13.68;73.79
39773;BME280;25451;51.960;6.250;2023-09-30T04:18:58;102373.81;;;13.69;73.92
39773;BME280;25451;51.960;6.250;2023-09-30T04:21:24;102382.16;;;13.69;73.84
39773;BME280;25451;51.960;6.250;2023-09-30T04:23:49;102388.31;;;13.71;73.62
39773;BME280;25451;51.960;6.250;2023-09-30T04:26:15;102400.28;;;13.71;73.87
39773;BME280;25451;51.960;6.250;2023-09-30T04:28:40;102394.72;;;13.71;74.08
39773;BME280;25451;51.960;6.250;2023-09-30T04:31:05;102397.28;;;13.73;74.00
39773;BME280;25451;51.960;6.250;2023-09-30T04:33:33;102398.97;;;13.74;73.77
39773;BME280;25451;51.960;6.250;2023-09-30T04:36:00;102400.66;;;13.75;74.01
39773;BME280;25451;51.960;6.250;2023-09-30T04:38:25;102390.41;;;13.75;73.79
39773;BME280;25451;51.960;6.250;2023-09-30T04:40:51;102393.44;;;13.74;73.77
39773;BME280;25451;51.960;6.250;2023-09-30T04:43:17;102392.97;;;13.77;74.02
39773;BME280;25451;51.960;6.250;2023-09-30T04:45:43;102387.41;;;13.77;73.85
39773;BME280;25451;51.960;6.250;2023-09-30T04:48:08;102389.75;;;13.80;73.84
39773;BME280;25451;51.960;6.250;2023-09-30T04:50:34;102388.28;;;13.77;73.91
39773;BME280;25451;51.960;6.250;2023-09-30T04:52:59;102384.63;;;13.77;74.29
39773;BME280;25451;51.960;6.250;2023-09-30T04:55:24;102394.19;;;13.81;74.12
39773;BME280;25451;51.960;6.250;2023-09-30T04:57:51;102401.47;;;13.82;74.06
39773;BME280;25451;51.960;6.250;2023-09-30T05:00:18;102397.84;;;13.81;73.96
39773;BME280;25451;51.960;6.250;2023-09-30T05:02:45;102403.16;;;13.83;74.04
39773;BME280;25451;51.960;6.250;2023-09-30T05:05:10;102396.78;;;13.82;74.03
39773;BME280;25451;51.960;6.250;2023-09-30T05:07:36;102407.66;;;13.84;74.34
39773;BME280;25451;51.960;6.250;2023-09-30T05:10:02;102405.72;;;13.84;74.24
39773;BME280;25451;51.960;6.250;2023-09-30T05:12:31;102404.88;;;13.84;74.09
39773;BME280;25451;51.960;6.250;2023-09-30T05:14:56;102412.34;;;13.83;74.29
39773;BME280;25451;51.960;6.250;2023-09-30T05:17:22;102410.41;;;13.84;74.55
39773;BME280;25451;51.960;6.250;2023-09-30T05:19:48;102408.69;;;13.83;74.29
39773;BME280;25451;51.960;6.250;2023-09-30T05:22:13;102413.44;;;13.82;74.33
39773;BME280;25451;51.960;6.250;2023-09-30T05:24:38;102415.97;;;13.84;74.29
39773;BME280;25451;51.960;6.250;2023-09-30T05:27:03;102419.81;;;13.83;74.15
39773;BME280;25451;51.960;6.250;2023-09-30T05:29:29;102418.13;;;13.82;74.39
39773;BME280;25451;51.960;6.250;2023-09-30T05:31:54;102419.81;;;13.83;74.31
39773;BME280;25451;51.960;6.250;2023-09-30T05:34:20;102418.13;;;13.82;74.46
39773;BME280;25451;51.960;6.250;2023-09-30T05:36:45;102415.13;;;13.83;74.19
39773;BME280;25451;51.960;6.250;2023-09-30T05:39:10;102424.53;;;13.82;74.33
39773;BME280;25451;51.960;6.250;2023-09-30T05:41:38;102414.72;;;13.80;74.42
39773;BME280;25451;51.960;6.250;2023-09-30T05:44:04;102417.88;;;13.83;74.35
39773;BME280;25451;51.960;6.250;2023-09-30T05:46:30;102411.72;;;13.81;74.33
39773;BME280;25451;51.960;6.250;2023-09-30T05:48:56;102407.03;;;13.82;74.20
39773;BME280;25451;51.960;6.250;2023-09-30T05:51:21;102407.03;;;13.82;74.24
39773;BME280;25451;51.960;6.250;2023-09-30T05:53:46;102408.09;;;13.81;74.43
39773;BME280;25451;51.960;6.250;2023-09-30T05:56:13;102422.59;;;13.83;74.29
39773;BME280;25451;51.960;6.250;2023-09-30T05:58:43;102415.34;;;13.82;74.60
39773;BME280;25451;51.960;6.250;2023-09-30T06:01:08;102430.09;;;13.82;74.35
39773;BME280;25451;51.960;6.250;2023-09-30T06:03:38;102430.91;;;13.83;74.76
39773;BME280;25451;51.960;6.250;2023-09-30T06:06:13;102433.91;;;13.81;74.46
39773;BME280;25451;51.960;6.250;2023-09-30T06:08:39;102432.00;;;13.82;74.37
39773;BME280;25451;51.960;6.250;2023-09-30T06:11:04;102435.63;;;13.82;74.54
39773;BME280;25451;51.960;6.250;2023-09-30T06:13:29;102435.16;;;13.85;74.35
39773;BME280;25451;51.960;6.250;2023-09-30T06:15:58;102428.75;;;13.85;74.31
39773;BME280;25451;51.960;6.250;2023-09-30T06:18:23;102431.31;;;13.86;74.48
39773;BME280;25451;51.960;6.250;2023-09-30T06:20:49;102431.31;;;13.86;74.37
39773;BME280;25451;51.960;6.250;2023-09-30T06:23:15;102438.56;;;13.87;74.49
39773;BME280;25451;51.960;6.250;2023-09-30T06:25:41;102438.56;;;13.87;74.86
39773;BME280;25451;51.960;6.250;2023-09-30T06:28:07;102438.31;;;13.89;74.63
39773;BME280;25451;51.960;6.250;2023-09-30T06:30:33;102444.50;;;13.91;74.58
39773;BME280;25451;51.960;6.250;2023-09-30T06:33:00;102439.41;;;13.88;74.49
39773;BME280;25451;51.960;6.250;2023-09-30T06:35:26;102435.09;;;13.92;74.60
39773;BME280;25451;51.960;6.250;2023-09-30T06:37:52;102437.03;;;13.91;74.65
39773;BME280;25451;51.960;6.250;2023-09-30T06:40:17;102434.63;;;13.95;74.77
39773;BME280;25451;51.960;6.250;2023-09-30T06:42:44;102436.97;;;13.98;74.79
39773;BME280;25451;51.960;6.250;2023-09-30T06:45:10;102433.34;;;13.97;74.58
39773;BME280;25451;51.960;6.250;2023-09-30T06:47:36;102436.50;;;14.01;74.80
39773;BME280;25451;51.960;6.250;2023-09-30T06:50:04;102441.84;;;14.02;74.50
39773;BME280;25451;51.960;6.250;2023-09-30T06:52:38;102450.81;;;14.04;74.46
39773;BME280;25451;51.960;6.250;2023-09-30T06:55:04;102451.19;;;14.08;74.61
39773;BME280;25451;51.960;6.250;2023-09-30T06:57:36;102470.38;;;14.09;74.69
39773;BME280;25451;51.960;6.250;2023-09-30T07:00:08;102464.38;;;14.12;74.82
39773;BME280;25451;51.960;6.250;2023-09-30T07:02:35;102469.09;;;14.12;74.57
39773;BME280;25451;51.960;6.250;2023-09-30T07:05:05;102465.41;;;14.18;74.67
39773;BME280;25451;51.960;6.250;2023-09-30T07:07:31;102467.94;;;14.20;74.72
39773;BME280;25451;51.960;6.250;2023-09-30T07:09:56;102476.69;;;14.23;74.76
39773;BME280;25451;51.960;6.250;2023-09-30T07:12:21;102487.31;;;14.26;74.61
39773;BME280;25451;51.960;6.250;2023-09-30T07:14:47;102485.19;;;14.28;74.84
39773;BME280;25451;51.960;6.250;2023-09-30T07:17:12;102487.53;;;14.31;74.70
39773;BME280;25451;51.960;6.250;2023-09-30T07:19:37;102484.03;;;14.36;74.74
39773;BME280;25451;51.960;6.250;2023-09-30T07:22:03;102492.78;;;14.39;74.75
39773;BME280;25451;51.960;6.250;2023-09-30T07:24:28;102493.41;;;14.41;74.42
39773;BME280;25451;51.960;6.250;2023-09-30T07:26:53;102504.44;;;14.48;74.73
39773;BME280;25451;51.960;6.250;2023-09-30T07:29:20;102502.06;;;14.51;74.83
39773;BME280;25451;51.960;6.250;2023-09-30T07:31:45;102498.56;;;14.56;74.78
39773;BME280;25451;51.960;6.250;2023-09-30T07:34:10;102505.16;;;14.61;74.84
39773;BME280;25451;51.960;6.250;2023-09-30T07:36:36;102507.25;;;14.66;74.90
39773;BME280;25451;51.960;6.250;2023-09-30T07:39:01;102506.53;;;14.70;74.96
39773;BME280;25451;51.960;6.250;2023-09-30T07:41:27;102517.59;;;14.77;74.94
39773;BME280;25451;51.960;6.250;2023-09-30T07:43:52;102515.34;;;14.85;74.96
39773;BME280;25451;51.960;6.250;2023-09-30T07:46:17;102511.41;;;14.93;74.73
39773;BME280;25451;51.960;6.250;2023-09-30T07:48:43;102523.31;;;15.00;74.90
39773;BME280;25451;51.960;6.250;2023-09-30T07:51:08;102521.69;;;15.11;74.81
39773;BME280;25451;51.960;6.250;2023-09-30T07:53:38;102526.94;;;15.19;74.86
39773;BME280;25451;51.960;6.250;2023-09-30T07:56:03;102523.34;;;15.30;74.71
39773;BME280;25451;51.960;6.250;2023-09-30T07:58:28;102525.13;;;15.42;74.81
39773;BME280;25451;51.960;6.250;2023-09-30T08:00:54;102527.94;;;15.54;74.63
39773;BME280;25451;51.960;6.250;2023-09-30T08:03:19;102531.63;;;15.66;74.89
39773;BME280;25451;51.960;6.250;2023-09-30T08:05:45;102527.78;;;15.78;74.69
39773;BME280;25451;51.960;6.250;2023-09-30T08:08:11;102531.44;;;15.91;74.67
39773;BME280;25451;51.960;6.250;2023-09-30T08:10:37;102533.19;;;16.03;74.65
39773;BME280;25451;51.960;6.250;2023-09-30T08:13:03;102528.47;;;16.15;74.58
39773;BME280;25451;51.960;6.250;2023-09-30T08:15:28;102539.41;;;16.28;74.57
39773;BME280;25451;51.960;6.250;2023-09-30T08:17:55;102536.63;;;16.40;74.80
39773;BME280;25451;51.960;6.250;2023-09-30T08:20:20;102531.31;;;16.50;74.68
39773;BME280;25451;51.960;6.250;2023-09-30T08:22:45;102542.09;;;16.70;74.82
39773;BME280;25451;51.960;6.250;2023-09-30T08:25:11;102541.84;;;16.83;74.57
39773;BME280;25451;51.960;6.250;2023-09-30T08:27:37;102537.94;;;16.95;74.63
39773;BME280;25451;51.960;6.250;2023-09-30T08:30:04;102530.41;;;17.07;74.71
39773;BME280;25451;51.960;6.250;2023-09-30T08:32:33;102527.34;;;17.20;74.56
39773;BME280;25451;51.960;6.250;2023-09-30T08:34:58;102526.44;;;17.31;74.67
39773;BME280;25451;51.960;6.250;2023-09-30T08:37:23;102523.84;;;17.41;74.60
39773;BME280;25451;51.960;6.250;2023-09-30T08:39:49;102527.56;;;17.59;74.71
39773;BME280;25451;51.960;6.250;2023-09-30T08:42:16;102513.28;;;17.72;74.68
39773;BME280;25451;51.960;6.250;2023-09-30T08:44:44;102519.44;;;17.85;74.48
39773;BME280;25451;51.960;6.250;2023-09-30T08:47:09;102517.63;;;17.96;74.36
39773;BME280;25451;51.960;6.250;2023-09-30T08:49:43;102519.25;;;18.08;74.38
39773;BME280;25451;51.960;6.250;2023-09-30T08:52:09;102515.81;;;18.18;74.25
39773;BME280;25451;51.960;6.250;2023-09-30T08:54:35;102524.34;;;18.28;73.97
39773;BME280;25451;51.960;6.250;2023-09-30T08:57:02;102518.66;;;18.40;73.98
39773;BME280;25451;51.960;6.250;2023-09-30T08:59:31;102509.97;;;18.53;74.03
39773;BME280;25451;51.960;6.250;2023-09-30T09:01:57;102519.91;;;18.65;73.79
39773;BME280;25451;51.960;6.250;2023-09-30T09:04:23;102528.22;;;18.77;73.91
39773;BME280;25451;51.960;6.250;2023-09-30T09:06:48;102533.97;;;18.87;73.64
39773;BME280;25451;51.960;6.250;2023-09-30T09:09:17;102521.78;;;18.98;73.55
39773;BME280;25451;51.960;6.250;2023-09-30T09:11:44;102535.41;;;19.11;73.41
39773;BME280;25451;51.960;6.250;2023-09-30T09:14:09;102535.00;;;19.24;73.38
39773;BME280;25451;51.960;6.250;2023-09-30T09:16:35;102527.59;;;19.35;73.29
39773;BME280;25451;51.960;6.250;2023-09-30T09:19:12;102522.97;;;19.45;72.96
39773;BME280;25451;51.960;6.250;2023-09-30T09:21:38;102525.88;;;19.55;72.69
39773;BME280;25451;51.960;6.250;2023-09-30T09:24:03;102526.00;;;19.65;72.65
39773;BME280;25451;51.960;6.250;2023-09-30T09:26:30;102516.59;;;19.76;72.47
39773;BME280;25451;51.960;6.250;2023-09-30T09:29:01;102527.44;;;19.95;72.23
39773;BME280;25451;51.960;6.250;2023-09-30T09:31:31;102528.69;;;20.09;71.89
39773;BME280;25451;51.960;6.250;2023-09-30T09:33:57;102533.31;;;20.20;71.85
39773;BME280;25451;51.960;6.250;2023-09-30T09:36:38;102539.31;;;20.38;71.64
39773;BME280;25451;51.960;6.250;2023-09-30T09:39:04;102540.81;;;20.51;71.25
39773;BME280;25451;51.960;6.250;2023-09-30T09:41:29;102555.50;;;20.63;71.25
39773;BME280;25451;51.960;6.250;2023-09-30T09:43:56;102553.28;;;20.65;71.07
39773;BME280;25451;51.960;6.250;2023-09-30T09:46:24;102565.41;;;20.76;71.01
39773;BME280;25451;51.960;6.250;2023-09-30T09:48:51;102574.72;;;20.81;70.69
39773;BME280;25451;51.960;6.250;2023-09-30T09:51:18;102575.84;;;20.85;70.50
39773;BME280;25451;51.960;6.250;2023-09-30T09:53:44;102575.91;;;20.90;70.35
39773;BME280;25451;51.960;6.250;2023-09-30T09:56:09;102569.78;;;20.98;70.29
39773;BME280;25451;51.960;6.250;2023-09-30T09:58:36;102571.53;;;21.04;70.05
39773;BME280;25451;51.960;6.250;2023-09-30T10:01:05;102574.38;;;21.09;69.93
39773;BME280;25451;51.960;6.250;2023-09-30T10:03:31;102574.97;;;21.16;69.83
39773;BME280;25451;51.960;6.250;2023-09-30T10:05:58;102572.75;;;21.23;69.74
39773;BME280;25451;51.960;6.250;2023-09-30T10:08:35;102578.97;;;21.30;69.77
39773;BME280;25451;51.960;6.250;2023-09-30T10:11:01;102568.63;;;21.41;69.78
39773;BME280;25451;51.960;6.250;2023-09-30T10:13:52;102576.25;;;21.56;69.75
39773;BME280;25451;51.960;6.250;2023-09-30T10:19:15;102581.44;;;21.84;69.94
39773;BME280;25451;51.960;6.250;2023-09-30T10:24:41;102588.78;;;22.00;69.38
39773;BME280;25451;51.960;6.250;2023-09-30T10:29:48;102593.03;;;22.12;69.69
39773;BME280;25451;51.960;6.250;2023-09-30T10:32:14;102579.50;;;22.19;69.23
39773;BME280;25451;51.960;6.250;2023-09-30T10:34:48;102579.81;;;22.28;68.72
39773;BME280;25451;51.960;6.250;2023-09-30T10:37:21;102575.88;;;22.34;69.06
39773;BME280;25451;51.960;6.250;2023-09-30T10:39:56;102559.28;;;22.43;68.58
39773;BME280;25451;51.960;6.250;2023-09-30T10:42:48;102557.28;;;22.48;68.58
39773;BME280;25451;51.960;6.250;2023-09-30T10:50:55;102535.38;;;22.65;68.54
39773;BME280;25451;51.960;6.250;2023-09-30T10:53:22;102544.06;;;22.79;68.46
39773;BME280;25451;51.960;6.250;2023-09-30T10:55:55;102538.94;;;22.91;68.42
39773;BME280;25451;51.960;6.250;2023-09-30T10:58:21;102535.84;;;22.97;67.97
39773;BME280;25451;51.960;6.250;2023-09-30T11:00:53;102533.25;;;23.11;67.06
39773;BME280;25451;51.960;6.250;2023-09-30T11:03:22;102530.16;;;23.13;67.09
39773;BME280;25451;51.960;6.250;2023-09-30T11:05:48;102531.53;;;23.20;67.23
39773;BME280;25451;51.960;6.250;2023-09-30T11:08:15;102527.81;;;23.30;67.49
39773;BME280;25451;51.960;6.250;2023-09-30T11:10:49;102536.56;;;23.38;66.95
39773;BME280;25451;51.960;6.250;2023-09-30T11:13:16;102542.47;;;23.42;66.86
39773;BME280;25451;51.960;6.250;2023-09-30T11:15:41;102543.56;;;23.46;66.18
39773;BME280;25451;51.960;6.250;2023-09-30T11:18:17;102545.56;;;23.45;65.72
39773;BME280;25451;51.960;6.250;2023-09-30T11:20:43;102541.88;;;23.45;65.17
39773;BME280;25451;51.960;6.250;2023-09-30T11:23:12;102539.38;;;23.43;64.69
39773;BME280;25451;51.960;6.250;2023-09-30T11:25:40;102541.34;;;23.38;64.62
39773;BME280;25451;51.960;6.250;2023-09-30T11:28:14;102540.25;;;23.29;63.94
39773;BME280;25451;51.960;6.250;2023-09-30T11:30:57;102552.41;;;23.19;63.77
39773;BME280;25451;51.960;6.250;2023-09-30T11:33:23;102543.69;;;23.11;63.78
39773;BME280;25451;51.960;6.250;2023-09-30T11:36:03;102545.41;;;23.06;63.54
39773;BME280;25451;51.960;6.250;2023-09-30T11:38:31;102538.63;;;23.07;63.54
39773;BME280;25451;51.960;6.250;2023-09-30T11:41:01;102542.84;;;23.10;63.50
39773;BME280;25451;51.960;6.250;2023-09-30T11:43:31;102536.91;;;23.12;63.50
39773;BME280;25451;51.960;6.250;2023-09-30T11:48:31;102533.25;;;23.11;62.95
39773;BME280;25451;51.960;6.250;2023-09-30T11:50:59;102536.38;;;23.09;62.79
39773;BME280;25451;51.960;6.250;2023-09-30T11:53:28;102519.75;;;23.08;62.34
39773;BME280;25451;51.960;6.250;2023-09-30T11:55:55;102523.44;;;23.03;62.27
39773;BME280;25451;51.960;6.250;2023-09-30T11:58:21;102517.25;;;23.01;62.27
39773;BME280;25451;51.960;6.250;2023-09-30T12:00:47;102511.63;;;22.96;62.19
39773;BME280;25451;51.960;6.250;2023-09-30T12:03:15;102496.16;;;22.94;62.01
39773;BME280;25451;51.960;6.250;2023-09-30T12:05:41;102494.75;;;22.91;61.73
39773;BME280;25451;51.960;6.250;2023-09-30T12:08:06;102506.59;;;22.88;61.42
39773;BME280;25451;51.960;6.250;2023-09-30T12:10:32;102504.38;;;22.80;60.96
39773;BME280;25451;51.960;6.250;2023-09-30T12:12:58;102513.94;;;22.79;61.26
39773;BME280;25451;51.960;6.250;2023-09-30T12:15:23;102513.38;;;22.77;61.22
39773;BME280;25451;51.960;6.250;2023-09-30T12:17:48;102499.59;;;22.71;61.16
39773;BME280;25451;51.960;6.250;2023-09-30T12:20:14;102504.38;;;22.70;61.23
39773;BME280;25451;51.960;6.250;2023-09-30T12:22:41;102510.59;;;22.67;61.29
39773;BME280;25451;51.960;6.250;2023-09-30T12:25:07;102506.66;;;22.63;61.13
39773;BME280;25451;51.960;6.250;2023-09-30T12:27:34;102513.97;;;22.59;61.14
39773;BME280;25451;51.960;6.250;2023-09-30T12:29:59;102520.47;;;22.60;61.38
39773;BME280;25451;51.960;6.250;2023-09-30T12:32:25;102512.81;;;22.55;61.08
39773;BME280;25451;51.960;6.250;2023-09-30T12:34:52;102503.25;;;22.51;60.75
39773;BME280;25451;51.960;6.250;2023-09-30T12:37:18;102496.22;;;22.49;60.93
39773;BME280;25451;51.960;6.250;2023-09-30T12:39:43;102498.19;;;22.48;60.81
39773;BME280;25451;51.960;6.250;2023-09-30T12:42:10;102506.06;;;22.46;60.90
39773;BME280;25451;51.960;6.250;2023-09-30T12:44:37;102505.50;;;22.44;61.04
39773;BME280;25451;51.960;6.250;2023-09-30T12:47:04;102493.69;;;22.42;60.91
39773;BME280;25451;51.960;6.250;2023-09-30T12:49:30;102479.34;;;22.39;60.80
39773;BME280;25451;51.960;6.250;2023-09-30T12:51:56;102474.03;;;22.37;60.65
39773;BME280;25451;51.960;6.250;2023-09-30T12:54:23;102477.13;;;22.36;60.50
39773;BME280;25451;51.960;6.250;2023-09-30T12:56:49;102464.47;;;22.33;60.27
39773;BME280;25451;51.960;6.250;2023-09-30T12:59:16;102462.75;;;22.32;60.13
39773;BME280;25451;51.960;6.250;2023-09-30T13:01:43;102450.38;;;22.28;60.28
39773;BME280;25451;51.960;6.250;2023-09-30T13:04:08;102464.75;;;22.26;60.23